Latest Weather Observations for Tasman Island

IDT60901

Issued at 12:51 am EDT Saturday 24 February 2024 (issued every 10 minutes, with the page automatically refreshed every 10 minutes)

About weather observations | Map of Hobart area stations | Latest observations for Hobart area | Other Formats
Station Details ID: 094155 Name: TASMAN ISLAND Lat: -43.24 Lon: 148.00 Height: 240.0 m
Data from the previous 72 hours. | See also: Recent months at Tasman Island
Date/Time
EDT
Temp
°C
App
Temp
°C
Dew
Point
°C
Rel
Hum
%
Delta-T
°C
Wind Press
QNH
hPa
Press
MSL
hPa
Rain since
9am
mm
Dir  Spd
km/h
Gust
km/h
Spd
kts
Gust
kts
24/12:30am 11.3 5.1 9.9 91 0.7 WSW 33 70 18 38 1009.2 1008.9 2.0
24/12:20am 10.8 4.6 9.9 94 0.5 WSW 33 80 18 43 1009.1 1008.8 2.0
24/12:08am 11.1 7.3 9.7 91 0.7 WSW 20 59 11 32 1009.0 1008.7 1.8
24/12:00am 10.9 7.1 9.8 93 0.6 WSW 20 46 11 25 1009.1 1008.8 1.6
 
Date/Time
EDT
Temp
°C
App
Temp
°C
Dew
Point
°C
Rel
Hum
%
Delta-T
°C
Wind Press
QNH
hPa
Press
MSL
hPa
Rain since
9am
mm
Dir  Spd
km/h
Gust
km/h
Spd
kts
Gust
kts
23/11:39pm 10.9 7.1 9.7 92 0.6 SW 20 61 11 33 1008.6 1008.3 1.2
23/11:30pm 11.1 7.3 9.9 92 0.6 WSW 20 59 11 32 1008.8 1008.5 0.8
23/11:01pm 10.6 5.2 9.5 93 0.6 WSW 28 74 15 40 1008.6 1008.3 0.8
23/11:00pm 10.7 5.8 9.8 94 0.5 WSW 26 74 14 40 1008.5 1008.2 0.8
23/10:46pm 10.4 6.7 9.6 95 0.4 WNW 19 65 10 35 1008.6 1008.3 0.8
23/10:30pm 10.4 6.1 9.5 94 0.5 WSW 22 52 12 28 1008.4 1008.1 0.4
23/10:00pm 10.6 4.2 9.5 93 0.6 WSW 33 63 18 34 1008.0 1007.7 0.0
23/09:30pm 11.3 4.8 8.3 82 1.5 WSW 32 59 17 32 1007.3 1006.9 0.0
23/09:03pm 11.6 5.9 8.3 80 1.6 WSW 28 67 15 36 1007.0 1006.6 0.0
23/09:00pm 11.7 6.3 8.2 79 1.7 WSW 26 63 14 34 1006.9 1006.5 0.0
23/08:31pm 11.9 6.2 8.4 79 1.8 WSW 28 67 15 36 1006.1 1005.7 0.0
23/08:30pm 11.9 6.6 8.4 79 1.8 WSW 26 67 14 36 1006.1 1005.7 0.0
23/08:00pm 12.2 7.8 8.9 80 1.7 WSW 22 52 12 28 1005.8 1005.4 0.0
23/07:30pm 12.3 7.8 8.4 77 2.0 WSW 22 46 12 25 1005.2 1004.9 0.0
23/07:00pm 12.1 7.8 9.3 83 1.4 WSW 22 52 12 28 1004.7 1004.4 0.0
23/06:40pm 12.8 7.2 8.9 77 2.0 WSW 28 57 15 31 1004.6 1004.3 0.0
23/06:30pm 12.8 8.5 9.3 79 1.8 WSW 22 52 12 28 1004.3 1004.0 0.0
23/06:00pm 13.2 8.9 9.5 78 1.9 WSW 22 54 12 29 1004.0 1003.7 0.0
23/05:30pm 14.0 11.9 8.2 68 2.9 WNW 9 35 5 19 1003.8 1003.5 0.0
23/05:00pm 13.7 11.1 7.7 67 3.0 WNW 11 43 6 23 1003.4 1003.0 0.0
23/04:30pm 13.7 11.3 8.5 71 2.6 WSW 11 37 6 20 1003.4 1003.0 0.0
23/04:00pm 14.4 11.8 7.9 65 3.3 N 11 32 6 17 1003.2 1002.8 0.0
23/03:30pm 13.9 11.3 7.7 66 3.1 NW 11 41 6 22 1002.8 1002.4 0.0
23/03:00pm 14.2 10.1 7.9 66 3.2 WSW 19 50 10 27 1002.6 1002.2 0.0
23/02:30pm 14.8 12.3 8.1 64 3.4 NW 11 37 6 20 1002.4 1002.0 0.0
23/02:00pm 16.3 10.8 7.5 56 4.5 SSW 26 63 14 34 1002.0 1001.6 0.0
23/01:54pm 15.2 10.8 6.7 57 4.2 SSW 19 56 10 30 1001.9 1001.5 0.0
23/01:30pm 15.7 12.5 7.0 56 4.3 NW 13 33 7 18 1001.9 1001.5 0.0
23/01:00pm 16.3 13.3 7.8 57 4.3 N 13 43 7 23 1001.9 1001.5 0.0
23/12:30pm 16.1 13.6 8.3 60 4.0 ENE 11 33 6 18 1001.9 1001.5 0.0
23/12:00pm 16.4 13.8 7.6 56 4.5 W 11 43 6 23 1001.5 1001.1 0.0
23/11:30am 16.3 13.6 7.5 56 4.5 SW 11 41 6 22 1001.8 1001.4 0.0
23/11:00am 15.4 12.8 7.9 61 3.8 SW 11 35 6 19 1001.5 1001.1 0.0
23/10:30am 15.0 11.5 7.3 60 3.8 SW 15 39 8 21 1001.1 1000.8 0.0
23/10:00am 15.1 11.3 9.0 67 3.2 NNW 19 50 10 27 1001.4 1001.0 0.0
23/09:55am 14.6 10.6 8.1 65 3.3 NNW 19 50 10 27 1001.0 1000.7 0.0
23/09:30am 15.4 13.1 9.1 66 3.3 SW 11 30 6 16 1001.2 1000.9 0.0
23/09:00am 15.2 13.5 8.2 63 3.6 N 7 32 4 17 1000.8 1000.5 0.0
23/08:30am 15.1 13.2 9.0 67 3.2 S 9 28 5 15 1000.5 1000.2 0.0
23/08:00am 15.4 13.4 8.6 64 3.5 E 9 32 5 17 1000.0 999.6 0.0
23/07:30am 15.0 13.1 9.1 68 3.1 ENE 9 24 5 13 999.9 999.5 0.0
23/07:00am 15.1 12.9 9.2 68 3.1 SSE 11 39 6 21 999.4 999.0 0.0
23/06:30am 15.5 12.0 8.7 64 3.5 WSW 17 44 9 24 998.9 998.5 0.0
23/06:00am 15.3 13.8 9.0 66 3.3 W 7 22 4 12 998.7 998.3 0.0
23/05:30am 15.3 13.3 8.5 64 3.5 ESE 9 20 5 11 998.6 998.2 0.0
23/05:00am 15.5 14.0 9.0 65 3.4 NW 7 22 4 12 998.4 998.0 0.0
23/04:30am 15.7 13.2 8.4 62 3.7 NW 11 33 6 18 998.4 998.0 0.0
23/04:00am 15.9 13.6 10.4 70 3.0 WNW 13 26 7 14 998.8 998.4 0.0
23/03:30am 16.1 14.7 10.8 71 2.9 NNW 9 22 5 12 999.0 998.6 0.0
23/03:00am 15.9 15.1 10.9 72 2.7 NNW 6 15 3 8 998.8 998.4 0.0
23/02:30am 16.1 15.4 11.9 76 2.3 NNE 7 22 4 12 998.8 998.4 0.0
23/02:00am 15.8 15.3 14.8 94 0.6 W 11 24 6 13 999.1 998.7 0.0
23/01:30am 15.5 15.9 14.7 95 0.5 WSW 6 9 3 5 999.1 998.7 0.0
23/01:00am 16.0 16.0 15.2 95 0.5 ESE 9 13 5 7 999.1 998.7 0.0
23/12:30am 15.6 15.8 14.6 94 0.6 SE 7 11 4 6 999.1 998.7 0.0
23/12:00am 15.8 15.2 14.7 93 0.6 SSE 11 17 6 9 999.2 998.8 0.0
 
Date/Time
EDT
Temp
°C
App
Temp
°C
Dew
Point
°C
Rel
Hum
%
Delta-T
°C
Wind Press
QNH
hPa
Press
MSL
hPa
Rain since
9am
mm
Dir  Spd
km/h
Gust
km/h
Spd
kts
Gust
kts
22/11:30pm 15.9 14.6 14.8 93 0.6 SSE 15 20 8 11 999.1 998.7 0.0
22/11:00pm 16.1 14.5 15.0 93 0.6 SE 17 24 9 13 999.4 999.0 0.0
22/10:30pm 16.1 14.0 14.8 92 0.8 SSE 19 24 10 13 999.4 999.0 0.0
22/10:00pm 16.2 14.6 15.1 93 0.6 SSE 17 28 9 15 999.6 999.2 0.0
22/09:30pm 16.5 14.7 15.5 94 0.6 SSE 19 35 10 19 999.3 998.9 0.0
22/09:00pm 16.8 16.2 15.7 93 0.7 SE 13 24 7 13 998.9 998.5 0.0
22/08:30pm 17.0 15.2 15.5 91 0.9 S 19 39 10 21 998.6 998.2 0.0
22/08:00pm 17.7 15.7 15.5 87 1.3 SSW 20 41 11 22 998.3 997.9 0.0
22/07:30pm 19.3 16.6 15.6 79 2.2 S 24 41 13 22 997.7 997.3 0.0
22/07:05pm 23.8 20.0 15.8 61 4.9 NW 30 57 16 31 997.5 997.1 0.0
22/07:00pm 23.4 17.2 16.0 63 4.6 NNW 43 63 23 34 997.4 997.0 0.0
22/06:58pm 23.3 16.6 16.1 64 4.4 NNW 46 67 25 36 997.3 996.9 0.0
22/06:30pm 22.5 16.5 16.5 69 3.7 N 43 59 23 32 997.1 996.7 0.0
22/06:00pm 21.8 15.5 17.2 75 2.9 N 46 65 25 35 997.6 997.2 0.0
22/05:30pm 22.0 16.3 17.2 74 3.0 N 43 63 23 34 997.7 997.3 0.0
22/05:00pm 20.9 15.4 18.1 84 1.8 N 44 67 24 36 997.8 997.4 0.0
22/04:42pm 22.1 13.9 17.2 74 3.0 N 56 78 30 42 998.1 997.7 0.0
22/04:30pm 21.7 13.6 17.9 79 2.4 N 57 74 31 40 998.1 997.7 0.0
22/04:00pm 21.6 16.0 17.8 79 2.4 N 44 70 24 38 998.6 998.2 0.0
22/03:30pm 23.3 17.6 17.1 68 3.9 N 43 67 23 36 999.3 998.9 0.0
22/03:00pm 20.7 13.5 17.7 83 1.9 N 52 74 28 40 999.9 999.5 0.0
22/02:31pm 20.8 13.8 17.2 80 2.2 N 50 93 27 50 1000.2 999.9 0.0
22/02:30pm 20.6 13.6 17.2 81 2.1 N 50 83 27 45 1000.2 999.9 0.0
22/02:12pm 20.9 12.8 17.7 82 2.0 N 57 80 31 43 1000.5 1000.2 0.0
22/02:00pm 22.1 14.0 17.7 76 2.8 N 57 72 31 39 1000.8 1000.5 0.0
22/01:30pm 21.4 13.2 17.0 76 2.7 N 56 70 30 38 1001.9 1001.5 0.0
22/01:00pm 21.7 14.0 16.4 72 3.3 N 52 80 28 43 1002.7 1002.3 0.0
22/12:33pm 23.2 17.1 16.7 67 4.0 N 44 74 24 40 1003.2 1002.8 0.0
22/12:30pm 23.1 16.5 16.4 66 4.1 N 46 63 25 34 1003.1 1002.7 0.0
22/12:00pm 20.8 13.4 16.2 75 2.8 N 50 63 27 34 1003.9 1003.6 0.0
22/11:35am 20.8 13.5 16.4 76 2.7 N 50 69 27 37 1004.5 1004.2 0.0
22/11:30am 20.5 12.8 16.5 78 2.4 N 52 69 28 37 1004.6 1004.3 0.0
22/11:00am 19.4 12.1 16.6 84 1.7 N 50 65 27 35 1004.8 1004.5 0.0
22/10:30am 18.9 12.1 16.9 88 1.2 N 48 61 26 33 1005.1 1004.8 0.0
22/10:00am 19.5 11.7 16.3 82 1.9 N 52 70 28 38 1005.3 1005.0 0.0
22/09:30am 18.9 11.2 16.5 86 1.5 N 52 63 28 34 1005.6 1005.3 0.0
22/09:00am 19.2 11.9 16.6 85 1.6 N 50 69 27 37 1006.0 1005.6 0.0
22/08:30am 19.7 13.0 16.0 79 2.2 N 46 59 25 32 1006.6 1006.2 0.0
22/08:12am 19.8 12.3 15.9 78 2.3 N 50 69 27 37 1006.8 1006.4 0.0
22/08:00am 19.7 11.8 16.0 79 2.2 N 52 69 28 37 1006.6 1006.2 0.0
22/07:30am 19.3 11.4 16.0 81 2.0 N 52 69 28 37 1006.7 1006.3 0.0
22/07:00am 19.2 12.1 16.1 82 1.9 N 48 59 26 32 1007.1 1006.7 0.0
22/06:30am 19.5 11.9 15.8 79 2.2 N 50 72 27 39 1007.0 1006.6 0.0
22/06:00am 19.8 13.0 15.9 78 2.4 N 46 72 25 39 1007.3 1006.9 0.0
22/05:30am 19.8 12.6 15.7 77 2.5 N 48 69 26 37 1007.8 1007.5 0.0
22/05:00am 19.7 13.9 16.0 79 2.2 N 41 63 22 34 1008.0 1007.7 0.0
22/04:30am 19.8 14.4 16.1 79 2.2 N 39 59 21 32 1008.5 1008.2 0.0
22/04:09am 19.6 14.3 16.3 81 2.0 N 39 57 21 31 1008.9 1008.6 0.0
22/04:00am 19.7 13.6 16.3 81 2.1 N 43 52 23 28 1009.0 1008.7 0.0
22/03:30am 19.9 13.7 16.3 80 2.2 N 44 57 24 31 1009.1 1008.8 0.0
22/03:00am 19.7 13.5 16.5 82 1.9 N 44 57 24 31 1009.3 1009.0 0.0
22/02:30am 19.8 14.2 16.6 82 1.9 N 41 52 22 28 1009.6 1009.3 0.0
22/02:00am 19.8 13.8 16.8 83 1.8 N 44 57 24 31 1009.8 1009.5 0.0
22/01:30am 20.2 12.6 16.8 81 2.1 N 52 63 28 34 1009.8 1009.5 0.0
22/01:00am 19.6 12.5 17.0 85 1.6 N 50 59 27 32 1010.2 1009.8 0.0
22/12:30am 19.5 13.3 17.3 87 1.4 N 46 61 25 33 1010.6 1010.2 0.0
22/12:00am 19.3 11.6 17.4 89 1.2 N 54 69 29 37 1011.0 1010.7 0.0
 
Date/Time
EDT
Temp
°C
App
Temp
°C
Dew
Point
°C
Rel
Hum
%
Delta-T
°C
Wind Press
QNH
hPa
Press
MSL
hPa
Rain since
9am
mm
Dir  Spd
km/h
Gust
km/h
Spd
kts
Gust
kts
21/11:30pm 19.0 11.0 17.5 91 0.9 N 56 70 30 38 1011.3 1011.0 0.0
21/11:00pm 19.1 10.6 17.8 92 0.8 N 59 70 32 38 1011.4 1011.1 0.0
21/10:30pm 18.6 10.7 17.8 95 0.5 N 56 69 30 37 1011.7 1011.4 0.0
21/10:00pm 18.8 10.9 17.8 94 0.6 N 56 72 30 39 1012.0 1011.7 0.0
21/09:30pm 18.7 11.6 18.0 96 0.4 N 52 61 28 33 1012.3 1012.0 0.0
21/09:00pm 18.4 11.8 18.1 98 0.2 N 50 61 27 33 1012.4 1012.1 0.0
21/08:30pm 18.3 10.9 18.0 98 0.2 N 54 67 29 36 1012.3 1012.0 0.0
21/08:00pm 18.4 10.6 18.1 98 0.2 N 56 67 30 36 1012.4 1012.1 0.0
21/07:30pm 18.5 10.6 18.2 98 0.2 N 57 70 31 38 1012.5 1012.2 0.0
21/07:00pm 18.7 10.9 18.0 96 0.4 N 56 72 30 39 1012.5 1012.2 0.0
21/06:30pm 18.7 10.8 17.9 95 0.5 N 56 72 30 39 1012.6 1012.3 0.0
21/06:00pm 18.9 11.0 17.9 94 0.6 N 56 70 30 38 1012.8 1012.5 0.0
21/05:30pm 18.9 12.1 17.7 93 0.7 N 50 65 27 35 1013.2 1012.9 0.0
21/05:00pm 19.1 11.9 17.6 91 0.9 NNE 52 69 28 37 1013.5 1013.2 0.0
21/04:49pm 19.3 12.4 17.6 90 1.1 N 50 70 27 38 1013.7 1013.4 0.0
21/04:30pm 19.5 12.3 17.8 90 1.1 NNE 52 67 28 36 1013.9 1013.6 0.0
21/04:00pm 19.5 12.3 17.6 89 1.2 NNE 52 65 28 35 1014.5 1014.2 0.0
21/03:30pm 19.4 12.9 17.5 89 1.2 NNE 48 61 26 33 1015.1 1014.8 0.0
21/03:00pm 19.0 12.4 17.3 90 1.0 NNE 48 59 26 32 1015.8 1015.5 0.0
21/02:30pm 19.6 13.0 17.4 87 1.4 NNE 48 61 26 33 1016.2 1015.9 0.0
21/02:00pm 19.3 13.1 17.4 89 1.2 NNE 46 59 25 32 1016.6 1016.3 0.0
21/01:47pm 19.5 13.8 17.3 87 1.4 NNE 43 61 23 33 1016.7 1016.4 0.0
21/01:30pm 19.5 14.0 17.6 89 1.2 NNE 43 56 23 30 1016.8 1016.5 0.0
21/01:00pm 19.6 13.0 17.2 86 1.5 NNE 48 59 26 32 1017.1 1016.8 0.0
21/12:30pm 19.7 13.9 17.5 87 1.4 NNE 44 57 24 31 1017.6 1017.3 0.0
21/12:08pm 18.3 12.9 17.1 93 0.7 NNE 41 61 22 33 1017.9 1017.6 0.0
21/12:00pm 18.2 13.6 17.0 93 0.7 NNE 37 56 20 30 1018.1 1017.9 0.0
21/11:32am 18.6 12.8 16.9 90 1.0 NNE 43 61 23 33 1018.4 1018.2 0.0
21/11:30am 18.5 12.5 16.8 90 1.0 NNE 44 61 24 33 1018.4 1018.2 0.0
21/11:00am 19.1 13.7 16.9 87 1.3 NNE 41 56 22 30 1018.6 1018.4 0.0
21/10:30am 19.3 13.9 16.9 86 1.5 NNE 41 56 22 30 1018.7 1018.5 0.0
21/10:19am 18.9 13.4 16.7 87 1.3 NNE 41 59 22 32 1019.0 1018.7 0.0
21/10:00am 18.9 13.1 16.9 88 1.2 NNE 43 57 23 31 1019.0 1018.7 0.0
21/09:30am 18.3 12.4 16.6 90 1.0 NNE 43 54 23 29 1019.2 1018.9 0.0
21/09:00am 18.1 12.2 16.6 91 0.9 NNE 43 57 23 31 1019.1 1018.8 0.0
21/08:30am 18.0 12.7 16.3 90 1.0 NNE 39 54 21 29 1019.1 1018.8 0.0
21/08:00am 17.6 12.4 16.5 93 0.7 NNE 39 52 21 28 1019.0 1018.7 0.0
21/07:30am 17.3 12.5 16.5 95 0.5 NNE 37 48 20 26 1019.2 1018.9 0.0
21/07:00am 17.3 12.5 16.5 95 0.5 NNE 37 46 20 25 1019.3 1019.0 0.0
21/06:30am 17.1 12.6 16.3 95 0.5 NNE 35 46 19 25 1019.2 1018.9 0.0
21/06:00am 17.1 12.6 16.3 95 0.5 N 35 48 19 26 1018.7 1018.5 0.0
21/05:30am 17.2 11.9 16.2 94 0.6 NNE 39 50 21 27 1018.9 1018.6 0.0
21/05:00am 17.0 11.9 15.9 93 0.7 N 37 52 20 28 1018.6 1018.4 0.0
21/04:30am 16.9 12.6 15.9 94 0.6 NNE 33 46 18 25 1019.0 1018.7 0.0
21/04:00am 16.7 11.3 15.9 95 0.5 NNE 39 48 21 26 1019.0 1018.7 0.0
21/03:30am 16.6 11.8 15.6 94 0.6 N 35 48 19 26 1019.1 1018.8 0.0
21/03:00am 16.5 11.6 15.2 92 0.8 N 35 48 19 26 1019.3 1019.0 0.0
21/02:30am 16.1 10.6 14.6 91 0.9 N 37 50 20 27 1019.5 1019.2 0.0
21/02:00am 16.4 11.6 15.6 95 0.5 NNE 35 46 19 25 1019.8 1019.5 0.0
21/01:30am 16.4 11.0 14.9 91 0.9 N 37 46 20 25 1020.0 1019.7 0.0
21/01:00am 16.4 11.5 14.2 87 1.3 N 33 44 18 24 1020.4 1020.1 0.0

Latest Capital City Observations: Canberra | Sydney | Melbourne | Brisbane | Adelaide | Perth | Hobart | Darwin

Other formats

Comma delimited format used in spreadsheet applications
http://www.bom.gov.au/fwo/IDT60901/IDT60901.95986.axf

JavaScript Object Notation format (JSON) in row-major order
http://www.bom.gov.au/fwo/IDT60901/IDT60901.95986.json

Data quality

Most of these data are generated automatically and are frequently updated. Quality checks on data are not normally performed. It is possible for incorrect values to appear. Refer to information at About Latest Weather Observations and please check the disclaimer before using these data.